Time;durP1;ratioP1;P1;durP2;ratioP2;P2;SDS_P1;SDS_P2;PMS_P1;PMS_P2;Temp;Humidity;BMP_temperature;BMP_pressure;BME280_temperature;BME280_humidity;BME280_pressure;Samples;Min_cycle;Max_cycle;Signal;HPM_P1;HPM_P2
2023/04/16 00:00:48;;;;;;;6.80;3.00;;;;;;;5.37;27.46;100961.41;5087940;28;20096;-63
2023/04/16 00:03:15;;;;;;;10.52;3.50;;;;;;;5.35;27.84;100952.78;5036864;28;20064;-63
2023/04/16 00:05:40;;;;;;;6.15;2.92;;;;;;;5.34;27.72;100953.63;5072262;28;20713;-62
2023/04/16 00:08:06;;;;;;;8.85;2.70;;;;;;;5.22;27.81;100942.38;5107457;27;20047;-62
2023/04/16 00:10:34;;;;;;;10.15;2.95;;;;;;;5.15;27.64;100936.28;5091298;28;20423;-62
2023/04/16 00:13:00;;;;;;;7.63;3.13;;;;;;;5.32;28.12;100967.38;5090817;28;20047;-63
2023/04/16 00:15:26;;;;;;;12.20;3.25;;;;;;;5.16;28.07;100942.31;5091586;28;20043;-63
2023/04/16 00:17:51;;;;;;;14.13;3.42;;;;;;;5.30;27.84;100972.50;5073409;28;20169;-64
2023/04/16 00:20:19;;;;;;;10.98;3.55;;;;;;;5.01;28.03;100928.47;5091480;28;20511;-63
2023/04/16 00:22:45;;;;;;;6.25;3.00;;;;;;;5.27;27.52;100972.50;5091679;28;20487;-62
2023/04/16 00:25:12;;;;;;;9.30;3.50;;;;;;;5.23;27.76;100967.31;5089411;28;20115;-64
2023/04/16 00:27:38;;;;;;;6.63;3.10;;;;;;;5.18;27.97;100971.56;5071664;28;20048;-62
2023/04/16 00:30:05;;;;;;;8.00;3.25;;;;;;;5.15;28.24;100974.09;5099429;27;20032;-62
2023/04/16 00:32:32;;;;;;;6.55;3.17;;;;;;;5.09;28.25;100969.75;5072475;28;20531;-64
2023/04/16 00:34:57;;;;;;;9.20;3.22;;;;;;;5.05;28.40;100966.28;5056933;28;20040;-63
2023/04/16 00:37:23;;;;;;;10.02;3.63;;;;;;;4.92;28.05;100953.31;5092671;28;20036;-62
2023/04/16 00:39:50;;;;;;;6.28;3.13;;;;;;;4.92;28.05;100950.72;5072130;28;20067;-63
2023/04/16 00:42:16;;;;;;;9.65;3.50;;;;;;;5.05;28.40;100975.75;5039420;28;20044;-60
2023/04/16 00:44:41;;;;;;;8.60;3.53;;;;;;;5.01;28.52;100977.44;5090953;28;20393;-63
2023/04/16 00:47:08;;;;;;;12.65;3.40;;;;;;;5.01;28.58;100977.44;5091486;28;20036;-62
2023/04/16 00:49:33;;;;;;;8.85;3.15;;;;;;;4.99;28.85;100976.53;5056078;28;20048;-62
2023/04/16 00:52:01;;;;;;;12.57;4.20;;;;;;;4.96;28.48;100979.09;5073039;28;20409;-64
2023/04/16 00:54:27;;;;;;;7.45;3.33;;;;;;;4.94;28.87;100980.78;5089744;28;20058;-63
2023/04/16 00:56:53;;;;;;;9.57;3.60;;;;;;;4.82;28.58;100960.06;5064335;28;20143;-64
2023/04/16 00:59:19;;;;;;;6.78;3.38;;;;;;;4.90;29.15;100975.59;5080685;28;20183;-62
2023/04/16 01:01:46;;;;;;;8.68;3.85;;;;;;;4.88;29.22;100972.13;5054341;28;20078;-62
2023/04/16 01:04:11;;;;;;;8.30;3.22;;;;;;;4.76;29.30;100954.88;5089266;28;20093;-63
2023/04/16 01:06:37;;;;;;;9.45;3.28;;;;;;;4.68;29.06;100944.47;5051000;28;20040;-64
2023/04/16 01:09:04;;;;;;;12.00;4.10;;;;;;;4.72;29.34;100957.38;5065452;28;20039;-62
2023/04/16 01:11:30;;;;;;;8.70;3.55;;;;;;;4.84;29.33;100965.22;5071052;28;20043;-63
2023/04/16 01:13:56;;;;;;;8.93;3.53;;;;;;;4.87;29.51;100975.56;5089495;28;20130;-64
2023/04/16 01:16:22;;;;;;;9.02;3.30;;;;;;;4.86;29.56;100966.13;5071611;28;20927;-63
2023/04/16 01:18:48;;;;;;;18.17;3.65;;;;;;;4.86;29.80;100967.00;5090514;28;20048;-63
2023/04/16 01:21:14;;;;;;;7.35;3.53;;;;;;;4.85;29.58;100974.69;5090437;28;20036;-61
2023/04/16 01:23:40;;;;;;;7.38;3.58;;;;;;;4.81;29.98;100960.06;5106368;28;20036;-62
2023/04/16 01:26:06;;;;;;;7.60;3.35;;;;;;;4.83;30.28;100966.94;5106434;28;20063;-63
2023/04/16 01:28:31;;;;;;;11.20;3.50;;;;;;;4.82;30.09;100969.50;5090810;28;20032;-63
2023/04/16 01:30:57;;;;;;;6.68;3.17;;;;;;;4.81;30.39;100967.78;5038780;28;20040;-62
2023/04/16 01:33:39;;;;;;;12.00;4.07;;;;;;;4.81;30.62;100972.94;5072534;28;20085;-62
2023/04/16 01:36:06;;;;;;;10.98;4.15;;;;;;;4.82;30.43;100967.78;5073445;28;20101;-63
2023/04/16 01:38:32;;;;;;;12.02;4.03;;;;;;;4.54;30.38;100922.88;5072566;28;20095;-63
2023/04/16 01:40:58;;;;;;;10.35;3.50;;;;;;;4.86;30.60;100969.56;5055114;28;20131;-63
2023/04/16 01:43:24;;;;;;;14.20;4.70;;;;;;;4.85;30.95;100965.25;5080438;28;20139;-62
2023/04/16 01:45:53;;;;;;;11.38;4.25;;;;;;;4.87;30.80;100962.66;5070172;28;20044;-63
2023/04/16 01:48:19;;;;;;;6.95;4.05;;;;;;;4.68;30.85;100936.75;5035998;28;20036;-62
2023/04/16 01:50:45;;;;;;;13.02;4.13;;;;;;;4.88;30.92;100969.56;5086392;28;20044;-61
2023/04/16 01:53:11;;;;;;;14.43;4.15;;;;;;;4.81;30.77;100948.06;5052095;28;20160;-62
2023/04/16 01:55:36;;;;;;;13.18;4.35;;;;;;;4.87;30.65;100968.69;5089165;28;20571;-62
2023/04/16 01:58:02;;;;;;;10.50;4.30;;;;;;;4.88;30.88;100964.41;5088825;28;20511;-62
2023/04/16 02:00:32;;;;;;;12.63;4.60;;;;;;;4.87;30.87;100967.81;5105991;28;20051;-63
2023/04/16 02:02:58;;;;;;;14.77;4.13;;;;;;;4.88;31.30;100969.56;5088126;28;20036;-62
2023/04/16 02:05:27;;;;;;;14.40;4.80;;;;;;;4.87;31.36;100965.25;5104233;28;20035;-63
2023/04/16 02:07:52;;;;;;;10.40;3.97;;;;;;;4.67;31.04;100936.72;5071949;28;20756;-63
2023/04/16 02:10:18;;;;;;;13.25;4.72;;;;;;;4.69;31.55;100948.78;5088484;28;20062;-63
2023/04/16 02:12:46;;;;;;;10.32;4.40;;;;;;;4.81;31.68;100968.66;5087637;28;20047;-61
2023/04/16 02:15:15;;;;;;;10.25;4.38;;;;;;;4.79;31.86;100975.50;5088134;28;20040;-62
2023/04/16 02:17:41;;;;;;;11.50;4.80;;;;;;;4.77;31.65;100972.03;5088034;28;20059;-62
2023/04/16 02:20:09;;;;;;;10.20;4.53;;;;;;;4.74;31.34;100966.88;5055333;28;20044;-62
2023/04/16 02:22:42;;;;;;;12.93;4.70;;;;;;;4.71;31.80;100964.25;5070505;28;20134;-62
2023/04/16 02:25:09;;;;;;;11.13;4.57;;;;;;;4.69;31.25;100971.09;5071195;28;20065;-62
2023/04/16 02:27:36;;;;;;;12.07;4.38;;;;;;;4.66;31.69;100974.50;5071174;28;20044;-62
2023/04/16 02:30:19;;;;;;;9.93;4.10;;;;;;;4.63;31.88;100969.34;5073300;28;20516;-62
2023/04/16 02:32:45;;;;;;;9.98;5.05;;;;;;;4.58;31.81;100965.84;5089914;28;20050;-61
2023/04/16 02:35:11;;;;;;;13.32;4.40;;;;;;;4.60;32.05;100974.47;5071663;28;20569;-62
2023/04/16 02:37:39;;;;;;;16.50;4.57;;;;;;;4.60;32.22;100971.03;5061330;28;20538;-62
2023/04/16 02:40:06;;;;;;;11.93;4.78;;;;;;;4.57;32.35;100966.69;5083437;28;20765;-62
2023/04/16 02:42:32;;;;;;;13.55;4.95;;;;;;;4.56;32.51;100972.69;5104327;28;20101;-62
2023/04/16 02:44:57;;;;;;;9.95;4.70;;;;;;;4.56;32.24;100976.97;5071364;28;20051;-62
2023/04/16 02:47:23;;;;;;;17.42;4.50;;;;;;;4.53;32.58;100964.94;5088900;28;20531;-63
2023/04/16 02:49:49;;;;;;;11.68;4.88;;;;;;;4.53;32.81;100982.97;5071466;28;20044;-62
2023/04/16 02:52:15;;;;;;;14.43;4.70;;;;;;;4.50;32.60;100980.34;5104871;27;20072;-62
2023/04/16 02:54:41;;;;;;;11.90;4.38;;;;;;;4.32;32.62;100958.69;5089392;28;20530;-62
2023/04/16 02:57:07;;;;;;;11.00;5.15;;;;;;;4.45;32.64;100976.84;5089589;28;20161;-62
2023/04/16 02:59:33;;;;;;;13.02;5.05;;;;;;;4.47;32.46;100982.88;5105146;28;20537;-62
2023/04/16 03:01:59;;;;;;;13.82;5.03;;;;;;;4.37;32.57;100970.75;5104844;28;20047;-62
2023/04/16 03:04:25;;;;;;;14.18;5.07;;;;;;;4.44;32.73;100982.00;5086252;28;20131;-62
2023/04/16 03:06:51;;;;;;;13.63;5.32;;;;;;;4.43;32.28;100980.28;5073715;28;20061;-62
2023/04/16 03:09:17;;;;;;;10.05;5.05;;;;;;;4.26;32.34;100962.03;5102489;28;20078;-63
2023/04/16 03:11:43;;;;;;;14.68;5.10;;;;;;;4.39;32.76;100984.53;5088848;28;20035;-62
2023/04/16 03:14:09;;;;;;;13.23;5.90;;;;;;;4.40;32.58;100985.38;5088639;28;20051;-61
2023/04/16 03:16:35;;;;;;;10.80;5.18;;;;;;;4.40;32.74;100991.38;5087129;28;20044;-62
2023/04/16 03:19:01;;;;;;;13.88;5.40;;;;;;;4.39;32.58;100983.66;5088803;28;20048;-61
2023/04/16 03:21:27;;;;;;;15.10;5.28;;;;;;;4.40;32.94;100995.66;5089120;28;20187;-63
2023/04/16 03:23:54;;;;;;;9.57;5.03;;;;;;;4.19;32.42;100952.50;5104394;28;20731;-63
2023/04/16 03:26:21;;;;;;;13.05;5.20;;;;;;;4.42;32.57;100986.25;5070052;28;20059;-61
2023/04/16 03:28:48;;;;;;;12.63;4.75;;;;;;;4.44;32.91;100990.59;5087641;28;20044;-62
2023/04/16 03:31:14;;;;;;;21.52;5.47;;;;;;;4.46;32.86;100988.00;5089015;28;20082;-61
2023/04/16 03:33:40;;;;;;;10.88;4.63;;;;;;;4.49;32.66;100985.50;5089968;28;20656;-62
2023/04/16 03:36:06;;;;;;;11.50;5.28;;;;;;;4.30;32.53;100955.22;5085989;28;20126;-61
2023/04/16 03:38:32;;;;;;;20.17;5.10;;;;;;;4.52;32.64;100988.09;5085105;28;20036;-62
2023/04/16 03:40:58;;;;;;;12.63;4.95;;;;;;;4.54;32.76;100984.69;5087543;28;20176;-64
2023/04/16 03:43:25;;;;;;;10.75;4.88;;;;;;;4.51;32.80;100976.06;5069784;28;20056;-62
2023/04/16 03:45:51;;;;;;;13.48;4.90;;;;;;;4.58;32.57;100978.72;5070562;28;20051;-62
2023/04/16 03:48:20;;;;;;;8.85;4.32;;;;;;;4.50;32.74;100958.91;5070112;28;20134;-63
2023/04/16 03:50:47;;;;;;;12.02;5.25;;;;;;;4.66;32.48;100981.38;5054112;28;20555;-60
2023/04/16 03:53:14;;;;;;;11.32;4.78;;;;;;;4.52;32.84;100950.31;5075375;28;20044;-62
2023/04/16 03:55:41;;;;;;;11.52;5.18;;;;;;;4.79;32.43;100990.97;5078754;28;20118;-62
2023/04/16 03:58:08;;;;;;;9.05;4.30;;;;;;;4.85;32.55;100996.19;5056028;28;20562;-62
2023/04/16 04:00:35;;;;;;;9.80;4.30;;;;;;;4.92;32.49;100987.63;5088666;28;20031;-61
2023/04/16 04:03:09;;;;;;;11.43;4.70;;;;;;;4.99;32.25;100994.59;5070656;28;20524;-61
2023/04/16 04:05:38;;;;;;;10.40;4.43;;;;;;;5.08;32.18;100993.78;5088526;28;20036;-63
2023/04/16 04:08:05;;;;;;;9.27;4.60;;;;;;;5.18;32.04;100998.22;5037125;28;20427;-63
2023/04/16 04:10:35;;;;;;;9.10;4.50;;;;;;;5.27;32.16;100989.69;5103224;28;20040;-63
2023/04/16 04:13:03;;;;;;;12.48;5.45;;;;;;;5.35;32.33;100996.59;5086403;28;20040;-63
2023/04/16 04:15:29;;;;;;;12.30;5.07;;;;;;;5.32;32.22;100968.22;5069843;28;20052;-62
2023/04/16 04:17:56;;;;;;;10.35;4.72;;;;;;;5.42;31.81;100961.41;5069018;28;20555;-62
2023/04/16 04:20:22;;;;;;;11.20;5.10;;;;;;;5.74;31.62;100990.00;5053672;28;20515;-62
2023/04/16 04:22:50;;;;;;;11.40;4.97;;;;;;;5.75;31.70;100963.34;5086936;28;20640;-60
2023/04/16 04:25:16;;;;;;;12.10;4.75;;;;;;;6.03;31.34;100985.03;5088750;28;20049;-63
2023/04/16 04:27:42;;;;;;;13.70;4.55;;;;;;;6.19;30.95;100976.50;5066976;28;20033;-62
2023/04/16 04:30:09;;;;;;;10.18;5.03;;;;;;;6.36;31.12;100985.19;5083662;28;20055;-63
2023/04/16 04:32:36;;;;;;;14.50;5.15;;;;;;;6.52;31.33;100978.34;5084790;28;20048;-64
2023/04/16 04:35:02;;;;;;;13.20;5.25;;;;;;;6.69;30.88;100979.25;5104036;28;20062;-62
2023/04/16 04:37:28;;;;;;;14.75;5.22;;;;;;;6.82;30.80;100978.41;5069655;28;20054;-63
2023/04/16 04:39:54;;;;;;;15.32;5.63;;;;;;;6.96;30.66;100984.44;5087688;28;20040;-62
2023/04/16 04:42:21;;;;;;;9.85;4.82;;;;;;;7.08;30.23;100981.88;5069779;28;20040;-60
2023/04/16 04:44:47;;;;;;;14.73;5.35;;;;;;;7.18;30.00;100978.44;5103639;28;20051;-64
2023/04/16 04:47:13;;;;;;;12.05;5.13;;;;;;;7.27;29.89;100980.19;5088375;28;20036;-62
2023/04/16 04:49:39;;;;;;;13.77;4.50;;;;;;;7.40;29.62;100991.38;5069750;28;20119;-63
2023/04/16 04:52:05;;;;;;;12.70;4.47;;;;;;;7.34;29.82;100958.59;5106338;28;20109;-63
2023/04/16 04:54:31;;;;;;;8.18;3.90;;;;;;;7.59;29.11;100980.13;5091711;28;20515;-63
2023/04/16 04:56:58;;;;;;;10.65;4.00;;;;;;;7.52;28.94;100987.06;5056614;28;20043;-62
2023/04/16 04:59:24;;;;;;;13.05;4.70;;;;;;;7.61;28.34;100979.28;5088960;28;20097;-63
2023/04/16 05:01:50;;;;;;;19.98;4.00;;;;;;;7.67;28.12;100973.22;5073174;28;20108;-62
2023/04/16 05:04:16;;;;;;;9.23;3.58;;;;;;;7.79;27.53;100972.34;5092187;28;20495;-63
2023/04/16 05:06:43;;;;;;;13.38;4.10;;;;;;;7.73;27.67;100936.13;5091338;28;20050;-63
2023/04/16 05:09:10;;;;;;;9.82;4.30;;;;;;;8.21;27.06;100985.16;5091489;28;20035;-63
2023/04/16 05:11:40;;;;;;;7.50;3.78;;;;;;;8.39;26.89;100979.91;5073318;28;20063;-64
2023/04/16 05:14:06;;;;;;;9.25;3.67;;;;;;;8.50;26.77;100988.50;5106034;27;20424;-63
2023/04/16 05:16:35;;;;;;;11.48;4.30;;;;;;;8.66;26.34;100994.47;5073210;28;20062;-63
2023/04/16 05:19:01;;;;;;;10.52;3.65;;;;;;;8.80;25.81;100989.19;5072255;28;20128;-63
2023/04/16 05:21:27;;;;;;;7.68;3.45;;;;;;;8.89;25.62;100986.56;5072904;28;20040;-64
2023/04/16 05:23:53;;;;;;;9.65;3.83;;;;;;;8.92;25.43;100989.97;5089954;28;20036;-64
2023/04/16 05:26:19;;;;;;;6.97;3.13;;;;;;;9.02;25.38;100980.41;5072970;28;20043;-64
2023/04/16 05:28:45;;;;;;;7.35;3.20;;;;;;;8.99;24.76;100988.22;5090095;28;20142;-65
2023/04/16 05:31:11;;;;;;;10.23;3.58;;;;;;;8.88;24.76;100980.50;5071918;28;20114;-65
2023/04/16 05:33:37;;;;;;;11.88;3.72;;;;;;;8.98;24.75;100975.25;5090030;28;20044;-63
2023/04/16 05:36:03;;;;;;;6.45;3.30;;;;;;;9.10;24.55;100983.81;5072009;28;20087;-63
2023/04/16 05:38:29;;;;;;;9.32;3.67;;;;;;;9.07;24.21;100983.81;5089817;28;20123;-63
2023/04/16 05:40:55;;;;;;;6.97;3.80;;;;;;;8.94;24.53;100982.19;5089763;28;20130;-64
2023/04/16 05:43:21;;;;;;;7.47;3.50;;;;;;;8.86;24.41;100958.91;5066123;28;20597;-62
2023/04/16 05:45:47;;;;;;;8.30;3.83;;;;;;;8.91;24.25;100956.25;5071233;28;20044;-62
2023/04/16 05:48:13;;;;;;;8.57;3.40;;;;;;;9.04;24.23;100954.47;5054974;28;20131;-62
2023/04/16 05:50:38;;;;;;;7.90;3.17;;;;;;;9.23;23.90;100982.84;5066484;28;20120;-62
2023/04/16 05:53:06;;;;;;;6.00;3.75;;;;;;;9.25;23.94;100970.72;5087042;28;20052;-64
2023/04/16 05:55:32;;;;;;;8.65;3.50;;;;;;;9.34;23.81;100977.56;5089995;28;20584;-63
2023/04/16 05:57:58;;;;;;;9.95;3.65;;;;;;;9.34;23.77;100970.63;5090236;28;20508;-64
2023/04/16 06:00:24;;;;;;;7.95;3.80;;;;;;;9.26;23.66;100932.66;5084229;28;20047;-64
2023/04/16 06:02:50;;;;;;;13.52;4.35;;;;;;;9.67;23.96;100966.88;5084578;28;20043;-63
2023/04/16 06:05:16;;;;;;;12.13;4.22;;;;;;;9.76;23.25;100933.00;5091972;28;20473;-63
2023/04/16 06:07:42;;;;;;;5.68;3.00;;;;;;;10.27;22.57;100956.66;5071755;28;20423;-64
2023/04/16 06:10:08;;;;;;;7.05;3.30;;;;;;;10.87;22.46;100954.97;5089952;28;20031;-64
2023/04/16 06:12:35;;;;;;;10.13;3.85;;;;;;;11.70;21.88;100957.88;5093055;28;20051;-62
2023/04/16 06:15:01;;;;;;;10.63;3.63;;;;;;;12.20;21.88;100961.25;5075142;28;20040;-63
2023/04/16 06:17:28;;;;;;;11.90;3.53;;;;;;;12.77;21.29;100955.69;5069432;28;20040;-64
2023/04/16 06:19:54;;;;;;;11.35;3.67;;;;;;;13.35;20.67;100960.38;5071269;28;20050;-63
2023/04/16 06:22:20;;;;;;;13.10;4.28;;;;;;;14.55;19.86;100936.97;5063777;28;20131;-62
2023/04/16 06:24:46;;;;;;;7.65;3.90;;;;;;;15.58;19.23;100953.72;5069999;28;20130;-64
2023/04/16 06:27:12;;;;;;;9.90;3.50;;;;;;;16.37;18.28;100958.72;5096189;28;20039;-63
2023/04/16 06:29:37;;;;;;;8.07;3.75;;;;;;;17.51;17.85;100965.50;5062906;28;20103;-63
2023/04/16 06:32:04;;;;;;;10.95;4.57;;;;;;;18.23;17.24;100957.94;5091464;27;20035;-61
2023/04/16 06:34:30;;;;;;;11.95;4.25;;;;;;;18.20;16.67;100944.94;5064599;28;20074;-62
2023/04/16 06:36:56;;;;;;;12.02;4.13;;;;;;;17.82;16.89;100953.69;5051034;28;20048;-63
2023/04/16 06:39:22;;;;;;;9.85;3.70;;;;;;;17.25;16.61;100953.44;5081505;28;20046;-65
2023/04/16 06:41:48;;;;;;;10.02;4.10;;;;;;;16.65;16.68;100945.41;5100280;28;20043;-65
2023/04/16 06:44:13;;;;;;;10.35;3.78;;;;;;;16.76;16.52;100946.69;5095976;28;20048;-66
2023/04/16 06:46:40;;;;;;;9.50;3.40;;;;;;;17.76;16.00;100950.41;5071687;28;20047;-64
2023/04/16 06:49:06;;;;;;;7.47;3.97;;;;;;;19.15;15.16;100957.13;5089811;28;20048;-63
2023/04/16 06:51:32;;;;;;;10.68;4.35;;;;;;;19.82;14.52;100917.63;5082546;28;20070;-66
2023/04/16 06:53:58;;;;;;;10.55;3.78;;;;;;;21.20;13.94;100940.81;5050835;28;20895;-68
2023/04/16 06:56:24;;;;;;;10.50;3.65;;;;;;;21.74;13.49;100944.59;5044567;28;20047;-66
2023/04/16 06:58:50;;;;;;;11.00;4.43;;;;;;;21.32;13.55;100940.06;5108495;28;20031;-66
2023/04/16 07:01:17;;;;;;;17.27;4.10;;;;;;;21.42;13.53;100942.06;5102149;28;20742;-65
2023/04/16 07:03:43;;;;;;;8.48;4.38;;;;;;;21.96;13.04;100913.25;5081926;28;20027;-65
2023/04/16 07:06:09;;;;;;;6.07;3.90;;;;;;;22.36;12.26;100938.09;5094781;28;20051;-65
2023/04/16 07:08:35;;;;;;;9.20;3.97;;;;;;;22.51;11.97;100942.41;5063665;28;20045;-67
2023/04/16 07:11:01;;;;;;;9.40;3.88;;;;;;;21.72;12.18;100910.25;5094054;28;20431;-67
2023/04/16 07:13:27;;;;;;;7.68;3.80;;;;;;;22.14;11.84;100938.59;5102170;28;20528;-67
2023/04/16 07:15:53;;;;;;;8.43;3.85;;;;;;;21.38;11.75;100922.03;5078214;28;20048;-67
2023/04/16 07:18:20;;;;;;;6.13;3.65;;;;;;;20.84;11.83;100939.28;5099860;28;20503;-66
2023/04/16 07:20:46;;;;;;;9.10;4.00;;;;;;;20.45;12.13;100921.25;5081801;28;20051;-65
2023/04/16 07:23:12;;;;;;;13.15;4.68;;;;;;;20.68;12.13;100939.28;5073318;28;20047;-61
2023/04/16 07:25:39;;;;;;;6.78;3.97;;;;;;;21.94;11.65;100945.13;5078621;28;20040;-61
2023/04/16 07:28:05;;;;;;;8.32;3.80;;;;;;;22.54;11.00;100936.94;5089364;28;20051;-63
2023/04/16 07:30:33;;;;;;;14.05;4.00;;;;;;;23.39;10.44;100938.44;5078288;28;20482;-54
2023/04/16 07:33:01;;;;;;;6.93;4.07;;;;;;;22.75;10.47;100901.13;5090491;28;20047;-57
2023/04/16 07:35:27;;;;;;;7.93;3.83;;;;;;;22.26;10.44;100919.28;5075883;28;20082;-59
2023/04/16 07:37:53;;;;;;;6.93;4.22;;;;;;;20.59;10.91;100931.03;5070861;28;20074;-53
2023/04/16 07:40:19;;;;;;;6.95;4.05;;;;;;;19.81;11.38;100935.25;5088726;28;20032;-52
2023/04/16 07:42:46;;;;;;;13.73;4.00;;;;;;;18.85;11.63;100902.31;5104266;28;20060;-53
2023/04/16 07:45:12;;;;;;;6.55;3.92;;;;;;;18.18;11.89;100910.78;5088527;28;20081;-55
2023/04/16 07:47:37;;;;;;;7.95;3.67;;;;;;;17.66;11.96;100932.44;5088518;28;20035;-52
2023/04/16 07:50:04;;;;;;;9.32;5.13;;;;;;;17.43;12.33;100946.53;5070351;28;20122;-54
2023/04/16 07:52:31;;;;;;;9.25;3.75;;;;;;;17.03;12.44;100936.00;5087773;28;20543;-51
2023/04/16 07:54:57;;;;;;;8.10;3.83;;;;;;;16.74;12.37;100911.78;5070327;28;20051;-56
2023/04/16 07:57:23;;;;;;;6.30;3.80;;;;;;;16.64;12.31;100933.22;5088639;28;20036;-55
2023/04/16 07:59:49;;;;;;;10.73;3.90;;;;;;;16.93;12.59;100894.34;5087381;28;20039;-54
2023/04/16 08:02:15;;;;;;;11.02;3.67;;;;;;;17.62;12.14;100925.63;5070242;28;20135;-53
2023/04/16 08:04:42;;;;;;;6.28;3.28;;;;;;;18.27;11.84;100924.41;5086947;28;20040;-55
2023/04/16 08:07:08;;;;;;;7.22;3.88;;;;;;;17.96;11.76;100904.78;5088108;28;20048;-53
2023/04/16 08:09:35;;;;;;;6.82;3.60;;;;;;;17.65;12.13;100920.22;5070332;28;20055;-50
2023/04/16 08:12:01;;;;;;;8.00;3.75;;;;;;;17.62;12.24;100915.09;5069722;28;20147;-54
2023/04/16 08:14:27;;;;;;;9.15;3.97;;;;;;;17.62;12.34;100904.56;5069888;28;20077;-53
2023/04/16 08:16:53;;;;;;;6.88;3.50;;;;;;;17.65;12.46;100907.06;5104275;28;20040;-53
2023/04/16 08:19:19;;;;;;;7.03;4.07;;;;;;;18.30;12.38;100908.50;5103200;28;20420;-55
2023/04/16 08:21:45;;;;;;;8.02;3.60;;;;;;;18.09;12.19;100905.09;5088374;28;20040;-53
2023/04/16 08:24:11;;;;;;;8.52;3.53;;;;;;;18.11;12.47;100909.34;5070186;28;20099;-58
2023/04/16 08:26:37;;;;;;;8.82;3.30;;;;;;;17.48;12.19;100913.00;5090953;28;20584;-54
2023/04/16 08:29:03;;;;;;;5.60;3.10;;;;;;;17.10;12.15;100885.75;5073730;28;20050;-53
2023/04/16 08:31:29;;;;;;;5.90;3.40;;;;;;;17.86;12.37;100885.06;5092015;28;20043;-53
2023/04/16 08:33:55;;;;;;;8.52;3.60;;;;;;;18.57;12.01;100891.44;5091877;28;20090;-51
2023/04/16 08:36:21;;;;;;;7.07;3.72;;;;;;;19.21;11.77;100893.53;5056947;28;20036;-56
2023/04/16 08:38:46;;;;;;;6.82;3.72;;;;;;;19.34;11.59;100884.06;5073840;28;20074;-54
2023/04/16 08:41:13;;;;;;;4.75;3.17;;;;;;;19.25;11.60;100890.66;5092087;28;20044;-53
2023/04/16 08:43:43;;;;;;;7.60;3.35;;;;;;;19.25;11.64;100879.25;5091701;28;20138;-52
2023/04/16 08:46:11;;;;;;;5.90;2.97;;;;;;;19.48;11.49;100880.72;5090434;28;20507;-54
2023/04/16 08:48:37;;;;;;;11.30;3.92;;;;;;;20.10;11.35;100862.38;5072153;28;20032;-53
2023/04/16 08:51:08;;;;;;;7.45;3.40;;;;;;;21.78;10.61;100875.47;5030676;28;20397;-50
2023/04/16 08:53:42;;;;;;;8.57;3.25;;;;;;;22.81;10.36;100873.34;5071310;28;20071;-54
2023/04/16 08:56:10;;;;;;;13.98;3.65;;;;;;;23.70;9.98;100871.69;5105458;28;20036;-53
2023/04/16 08:58:37;;;;;;;14.10;4.18;;;;;;;24.29;9.56;100878.06;5088395;28;20519;-61
2023/04/16 09:01:03;;;;;;;6.85;3.35;;;;;;;25.04;9.11;100860.09;5088204;28;20048;-62
2023/04/16 09:03:30;;;;;;;4.45;3.55;;;;;;;24.48;8.90;100877.59;5082594;28;20115;-63
2023/04/16 09:05:58;;;;;;;6.28;4.20;;;;;;;24.69;9.04;100870.69;5086103;28;20044;-65
2023/04/16 09:08:25;;;;;;;7.03;3.08;;;;;;;26.50;8.82;100870.72;5089694;28;20067;-65
2023/04/16 09:10:51;;;;;;;6.30;3.00;;;;;;;26.49;8.56;100868.16;5071381;28;20162;-63
2023/04/16 09:13:19;;;;;;;11.57;3.50;;;;;;;25.99;8.47;100870.41;5088784;28;20561;-65
2023/04/16 09:15:45;;;;;;;7.63;3.25;;;;;;;25.57;8.37;100853.34;5111682;27;20047;-63
2023/04/16 09:18:11;;;;;;;12.52;4.30;;;;;;;26.47;8.59;100872.78;5098362;28;20139;-63
2023/04/16 09:20:38;;;;;;;8.32;3.58;;;;;;;27.63;8.12;100861.22;5072050;28;20043;-63
2023/04/16 09:23:04;;;;;;;9.38;3.92;;;;;;;28.27;7.80;100844.84;5060552;28;20048;-63
2023/04/16 09:25:33;;;;;;;7.57;4.40;;;;;;;28.74;7.62;100865.50;5041803;28;20047;-64
2023/04/16 09:28:00;;;;;;;12.38;4.13;;;;;;;28.07;7.61;100858.13;5061328;28;20131;-66
2023/04/16 09:30:27;;;;;;;8.68;3.28;;;;;;;26.24;7.91;100853.31;5058862;28;20047;-64
2023/04/16 09:33:16;;;;;;;7.28;3.15;;;;;;;24.30;8.68;100855.84;5080327;28;20495;-61
2023/04/16 09:35:47;;;;;;;7.45;3.58;;;;;;;23.40;9.08;100840.09;5075082;28;20043;-64
2023/04/16 09:38:13;;;;;;;5.45;3.03;;;;;;;23.42;9.27;100840.00;5080867;28;20043;-63
2023/04/16 09:40:39;;;;;;;4.65;3.08;;;;;;;23.32;9.24;100839.78;5093631;28;20040;-64
2023/04/16 09:43:16;;;;;;;8.18;4.13;;;;;;;23.17;9.39;100830.22;5091544;28;20847;-64
2023/04/16 09:45:53;;;;;;;6.65;2.95;;;;;;;23.40;9.18;100839.22;5062242;28;20039;-65
2023/04/16 09:48:40;;;;;;;5.22;2.88;;;;;;;22.82;9.59;100839.72;5077836;28;20044;-64
2023/04/16 09:51:07;;;;;;;4.75;2.70;;;;;;;22.97;9.55;100846.66;5087478;28;20176;-63
2023/04/16 09:53:34;;;;;;;8.13;3.08;;;;;;;21.98;9.77;100836.34;5072332;28;20051;-64
2023/04/16 09:56:03;;;;;;;6.25;2.88;;;;;;;22.64;9.71;100831.13;5096954;27;20037;-64
2023/04/16 09:58:29;;;;;;;6.80;2.90;;;;;;;21.94;9.78;100841.84;5090592;28;20579;-63
2023/04/16 10:01:02;;;;;;;4.82;2.47;;;;;;;21.29;10.02;100837.09;5089394;28;20126;-65
2023/04/16 10:03:32;;;;;;;6.18;3.10;;;;;;;20.69;10.17;100837.06;5081541;28;20032;-63
2023/04/16 10:06:14;;;;;;;14.73;2.92;;;;;;;20.26;10.53;100834.19;5085946;28;20130;-63
2023/04/16 10:08:46;;;;;;;4.90;2.90;;;;;;;20.53;10.47;100830.97;5084123;28;20102;-65
2023/04/16 10:11:12;;;;;;;6.10;2.60;;;;;;;21.52;10.19;100825.94;5088712;28;20130;-63
2023/04/16 10:13:38;;;;;;;7.07;2.90;;;;;;;21.60;10.21;100818.38;5087436;28;20050;-64
2023/04/16 10:16:05;;;;;;;8.07;3.10;;;;;;;21.44;10.04;100825.56;5088457;28;20364;-64
2023/04/16 10:18:31;;;;;;;7.50;3.05;;;;;;;21.61;10.36;100825.38;5069314;28;20043;-62
2023/04/16 10:20:58;;;;;;;10.93;3.25;;;;;;;21.33;10.38;100828.84;5087554;28;20079;-62
2023/04/16 10:23:23;;;;;;;7.22;3.42;;;;;;;20.83;10.75;100804.56;5070113;28;20051;-63
2023/04/16 10:25:49;;;;;;;6.28;3.60;;;;;;;21.16;10.82;100817.59;5068619;28;20036;-66
2023/04/16 10:28:16;;;;;;;7.60;3.30;;;;;;;21.12;10.79;100827.47;5070282;28;20039;-64
2023/04/16 10:30:51;;;;;;;6.85;3.55;;;;;;;21.32;10.80;100821.00;5068429;28;20050;-64
2023/04/16 10:33:21;;;;;;;5.68;2.85;;;;;;;20.92;10.57;100820.72;5085811;28;20048;-65
2023/04/16 10:35:48;;;;;;;7.15;2.97;;;;;;;20.20;10.97;100802.84;5086876;28;20044;-70
2023/04/16 10:38:24;;;;;;;5.55;3.17;;;;;;;20.18;11.34;100815.28;5071255;28;20043;-65
2023/04/16 10:41:02;;;;;;;7.15;2.92;;;;;;;21.34;10.92;100822.63;5051361;28;20097;-65
2023/04/16 10:43:30;;;;;;;7.15;2.90;;;;;;;21.34;10.74;100813.84;5077307;28;20461;-64
2023/04/16 10:45:56;;;;;;;7.30;2.70;;;;;;;21.48;10.64;100819.97;5068766;28;20044;-65
2023/04/16 10:48:26;;;;;;;4.80;2.92;;;;;;;21.23;10.87;100805.69;5086893;28;20516;-64
2023/04/16 10:50:56;;;;;;;6.82;3.13;;;;;;;21.51;10.83;100818.97;5067860;28;20093;-64
2023/04/16 10:53:26;;;;;;;7.50;3.00;;;;;;;22.46;10.38;100811.13;5068940;28;20163;-67
2023/04/16 10:56:10;;;;;;;5.50;2.67;;;;;;;24.31;9.67;100803.53;5088055;28;20035;-65
2023/04/16 10:58:36;;;;;;;8.05;3.10;;;;;;;25.47;9.21;100815.03;5087791;28;20047;-68
2023/04/16 11:01:12;;;;;;;6.80;3.50;;;;;;;27.14;8.64;100806.63;5086805;28;20040;-69
2023/04/16 11:03:47;;;;;;;10.50;6.25;;;;;;;29.29;7.98;100794.25;5079024;28;20059;-67
2023/04/16 11:06:23;;;;;;;5.15;3.20;;;;;;;29.57;7.60;100816.63;5070732;28;20040;-66
2023/04/16 11:08:53;;;;;;;8.55;2.50;;;;;;;27.74;7.74;100799.66;5081205;28;20028;-67
2023/04/16 11:11:20;;;;;;;5.38;2.85;;;;;;;26.06;8.60;100789.00;5095017;28;20036;-67
2023/04/16 11:13:47;;;;;;;9.93;3.22;;;;;;;24.70;8.93;100795.25;5063452;28;20051;-61
2023/04/16 11:16:15;;;;;;;6.63;2.95;;;;;;;25.66;8.88;100772.69;5089802;28;20688;-65
2023/04/16 11:18:41;;;;;;;8.30;3.57;;;;;;;27.25;8.50;100752.31;5069043;28;20044;-65
2023/04/16 11:21:11;;;;;;;5.47;3.58;;;;;;;28.30;8.04;100804.44;5091007;28;20040;-67
2023/04/16 11:23:48;;;;;;;7.78;3.60;;;;;;;28.19;8.02;100771.50;5084178;28;20039;-65
2023/04/16 11:26:28;;;;;;;5.57;3.70;;;;;;;28.35;7.93;100792.34;5110877;27;20061;-67